Time;durP1;ratioP1;P1;durP2;ratioP2;P2;SDS_P1;SDS_P2;PMS_P1;PMS_P2;Temp;Humidity;BMP_temperature;BMP_pressure;BME280_temperature;BME280_humidity;BME280_pressure;Samples;Min_cycle;Max_cycle;Signal;HPM_P1;HPM_P2
2023/03/11 00:00:25;;;;;;;40.25;18.95;;;0.60;99.90;;;;;;5069253;28;20024;-47
2023/03/11 00:02:53;;;;;;;35.55;18.23;;;0.60;99.90;;;;;;5068860;28;20029;-46
2023/03/11 00:05:22;;;;;;;36.55;19.10;;;0.60;99.90;;;;;;5065091;28;20041;-48
2023/03/11 00:07:48;;;;;;;35.30;18.60;;;0.60;99.90;;;;;;5053470;28;20020;-45
2023/03/11 00:10:16;;;;;;;39.50;19.45;;;0.60;99.90;;;;;;5049191;28;20390;-46
2023/03/11 00:12:42;;;;;;;39.22;19.38;;;0.60;99.90;;;;;;5048783;28;20040;-46
2023/03/11 00:15:08;;;;;;;36.85;17.80;;;0.60;99.90;;;;;;5048925;28;20029;-45
2023/03/11 00:17:33;;;;;;;39.80;18.70;;;0.60;99.90;;;;;;5047395;28;20025;-46
2023/03/11 00:19:59;;;;;;;34.88;17.52;;;0.60;99.90;;;;;;5048791;28;20104;-46
2023/03/11 00:22:25;;;;;;;39.58;18.63;;;0.60;99.90;;;;;;5048810;28;20029;-46
2023/03/11 00:24:50;;;;;;;36.60;17.42;;;0.60;99.90;;;;;;5048465;28;20486;-45
2023/03/11 00:27:16;;;;;;;32.38;16.63;;;0.60;99.90;;;;;;5048727;28;20035;-46
2023/03/11 00:29:41;;;;;;;40.17;18.45;;;0.60;99.90;;;;;;5048828;28;20154;-46
2023/03/11 00:32:07;;;;;;;42.63;19.20;;;0.50;99.90;;;;;;5048958;28;20177;-45
2023/03/11 00:34:32;;;;;;;40.80;18.70;;;0.50;99.90;;;;;;5048414;28;20025;-46
2023/03/11 00:36:57;;;;;;;36.05;17.98;;;0.60;99.90;;;;;;5048465;28;20021;-46
2023/03/11 00:39:23;;;;;;;44.38;19.13;;;0.50;99.90;;;;;;5049204;28;20025;-46
2023/03/11 00:41:49;;;;;;;34.17;16.60;;;0.50;99.90;;;;;;5048490;28;20494;-46
2023/03/11 00:44:15;;;;;;;39.08;17.80;;;0.50;99.90;;;;;;5047132;28;20104;-45
2023/03/11 00:46:41;;;;;;;33.55;16.23;;;0.50;99.90;;;;;;5048209;28;20174;-46
2023/03/11 00:49:06;;;;;;;35.72;17.73;;;0.50;99.90;;;;;;5048871;28;20017;-46
2023/03/11 00:51:33;;;;;;;33.15;16.17;;;0.50;99.90;;;;;;5048306;28;20021;-46
2023/03/11 00:54:00;;;;;;;40.17;18.75;;;0.50;99.90;;;;;;5048711;28;20487;-46
2023/03/11 00:56:26;;;;;;;32.25;15.80;;;0.50;99.90;;;;;;5048335;28;20492;-46
2023/03/11 00:58:51;;;;;;;37.83;16.25;;;0.50;99.90;;;;;;5060729;28;20111;-47
2023/03/11 01:01:18;;;;;;;36.00;15.90;;;0.50;99.90;;;;;;5069830;28;20024;-46
2023/03/11 01:03:45;;;;;;;38.60;17.15;;;0.50;99.90;;;;;;5072414;28;20036;-46
2023/03/11 01:06:11;;;;;;;32.15;14.90;;;0.50;99.90;;;;;;5066754;28;20454;-46
2023/03/11 01:08:37;;;;;;;43.10;17.92;;;0.50;99.90;;;;;;5052433;28;20025;-46
2023/03/11 01:11:04;;;;;;;40.00;17.45;;;0.50;99.90;;;;;;5052502;28;20099;-46
2023/03/11 01:13:29;;;;;;;35.60;16.50;;;0.40;99.90;;;;;;5052462;28;20532;-47
2023/03/11 01:15:56;;;;;;;40.15;18.00;;;0.40;99.90;;;;;;5050767;28;20029;-46
2023/03/11 01:18:21;;;;;;;42.03;17.55;;;0.50;99.90;;;;;;5050971;28;20475;-47
2023/03/11 01:20:48;;;;;;;45.33;17.63;;;0.50;99.90;;;;;;5052242;28;20072;-47
2023/03/11 01:23:14;;;;;;;42.28;18.08;;;0.40;99.90;;;;;;5051982;28;20475;-46
2023/03/11 01:25:40;;;;;;;38.05;18.00;;;0.50;99.90;;;;;;5052056;28;20382;-47
2023/03/11 01:28:09;;;;;;;41.17;18.75;;;0.40;99.90;;;;;;5052239;28;20108;-47
2023/03/11 01:30:37;;;;;;;50.75;18.83;;;0.40;99.90;;;;;;5052151;28;20036;-47
2023/03/11 01:33:04;;;;;;;45.60;19.88;;;0.40;99.90;;;;;;5052459;28;20087;-46
2023/03/11 01:35:31;;;;;;;49.67;19.65;;;0.40;99.90;;;;;;5055315;28;20513;-47
2023/03/11 01:37:57;;;;;;;53.45;21.13;;;0.40;99.90;;;;;;5066673;28;20032;-48
2023/03/11 01:40:26;;;;;;;60.92;22.77;;;0.40;99.90;;;;;;5051642;28;20033;-46
2023/03/11 01:42:51;;;;;;;53.22;22.02;;;0.40;99.90;;;;;;5050933;28;20029;-46
2023/03/11 01:45:32;;;;;;;61.72;23.25;;;0.40;99.90;;;;;;5051432;28;20035;-47
2023/03/11 01:47:58;;;;;;;52.45;21.58;;;0.40;99.90;;;;;;5050478;28;20029;-49
2023/03/11 01:50:26;;;;;;;59.47;23.40;;;0.40;99.90;;;;;;5051951;28;20025;-46
2023/03/11 01:52:52;;;;;;;58.92;24.45;;;0.40;99.90;;;;;;5051777;28;20056;-47
2023/03/11 01:55:19;;;;;;;54.15;23.60;;;0.40;99.90;;;;;;5051222;28;20479;-47
2023/03/11 01:57:46;;;;;;;65.32;24.13;;;0.40;99.90;;;;;;5051712;28;20024;-47
2023/03/11 02:00:14;;;;;;;69.72;27.20;;;0.40;99.90;;;;;;5051820;28;20035;-47
2023/03/11 02:02:55;;;;;;;66.15;27.77;;;0.40;99.90;;;;;;5051692;28;20036;-46
2023/03/11 02:05:22;;;;;;;68.35;27.10;;;0.40;99.90;;;;;;5050958;28;20084;-46
2023/03/11 02:07:50;;;;;;;71.00;26.30;;;0.50;99.90;;;;;;5061640;28;20031;-47
2023/03/11 02:10:15;;;;;;;66.32;26.88;;;0.40;99.90;;;;;;5071448;28;20035;-49
2023/03/11 02:12:42;;;;;;;65.90;26.02;;;0.50;99.90;;;;;;5070559;28;20432;-47
2023/03/11 02:15:09;;;;;;;75.22;29.00;;;0.40;99.90;;;;;;5070891;28;20117;-47
2023/03/11 02:17:36;;;;;;;65.25;26.55;;;0.40;99.90;;;;;;5071385;28;20043;-47
2023/03/11 02:20:22;;;;;;;76.80;30.02;;;0.40;99.90;;;;;;5071034;28;20494;-47
2023/03/11 02:22:48;;;;;;;75.50;29.08;;;0.40;99.90;;;;;;5070870;28;20025;-46
2023/03/11 02:25:29;;;;;;;81.93;29.02;;;0.40;99.90;;;;;;5070618;28;20386;-47
2023/03/11 02:27:56;;;;;;;98.07;34.30;;;0.40;99.90;;;;;;5071075;28;20410;-47
2023/03/11 02:30:24;;;;;;;85.72;33.55;;;0.40;99.90;;;;;;5070883;28;20032;-47
2023/03/11 02:32:50;;;;;;;78.75;31.25;;;0.40;99.90;;;;;;5070822;28;20044;-47
2023/03/11 02:35:16;;;;;;;81.85;31.90;;;0.40;99.90;;;;;;5067766;28;20130;-46
2023/03/11 02:37:50;;;;;;;93.13;33.72;;;0.30;99.90;;;;;;5049344;28;20075;-46
2023/03/11 02:40:22;;;;;;;76.88;29.15;;;0.40;99.90;;;;;;5057411;28;20394;-47
2023/03/11 02:42:50;;;;;;;80.95;29.30;;;0.40;99.90;;;;;;5070523;28;20028;-46
2023/03/11 02:45:19;;;;;;;80.35;29.70;;;0.40;99.90;;;;;;5070305;28;20109;-46
2023/03/11 02:47:45;;;;;;;87.07;32.95;;;0.40;99.90;;;;;;5070665;28;20091;-46
2023/03/11 02:50:14;;;;;;;77.63;29.15;;;0.40;99.90;;;;;;5070705;28;20130;-47
2023/03/11 02:52:39;;;;;;;92.50;31.40;;;0.40;99.90;;;;;;5070463;28;20390;-46
2023/03/11 02:55:06;;;;;;;88.38;29.90;;;0.40;99.90;;;;;;5070127;28;20035;-49
2023/03/11 02:57:32;;;;;;;95.13;31.88;;;0.40;99.90;;;;;;5070523;28;20158;-47
2023/03/11 02:59:58;;;;;;;89.32;31.25;;;0.40;99.90;;;;;;5070411;28;20095;-47
2023/03/11 03:02:24;;;;;;;98.35;35.10;;;0.30;99.90;;;;;;5070096;28;20166;-46
2023/03/11 03:04:49;;;;;;;90.78;33.53;;;0.40;99.90;;;;;;5069881;28;20100;-48
2023/03/11 03:07:15;;;;;;;102.25;33.45;;;0.40;99.90;;;;;;5050521;28;20021;-47
2023/03/11 03:09:41;;;;;;;88.93;33.17;;;0.30;99.90;;;;;;5050383;28;20025;-47
2023/03/11 03:12:07;;;;;;;86.85;31.52;;;0.40;99.90;;;;;;5050638;28;20043;-47
2023/03/11 03:14:32;;;;;;;121.07;35.70;;;0.40;99.90;;;;;;5050604;28;20033;-47
2023/03/11 03:16:58;;;;;;;108.40;36.20;;;0.40;99.90;;;;;;5050421;28;20032;-46
2023/03/11 03:19:23;;;;;;;100.57;33.00;;;0.40;99.90;;;;;;5050146;28;20033;-47
2023/03/11 03:21:49;;;;;;;97.47;32.60;;;0.40;99.90;;;;;;5049573;28;20027;-47
2023/03/11 03:24:14;;;;;;;105.03;33.60;;;0.40;99.90;;;;;;5049358;28;20025;-46
2023/03/11 03:26:40;;;;;;;91.53;33.22;;;0.30;99.90;;;;;;5050098;28;20024;-47
2023/03/11 03:29:06;;;;;;;106.93;35.28;;;0.40;99.90;;;;;;5048931;28;20029;-46
2023/03/11 03:31:31;;;;;;;123.38;37.22;;;0.30;99.90;;;;;;5049751;28;20033;-47
2023/03/11 03:33:57;;;;;;;110.28;34.53;;;0.30;99.90;;;;;;5049651;28;20025;-46
2023/03/11 03:36:23;;;;;;;122.72;35.85;;;0.40;99.90;;;;;;5048976;28;20071;-46
2023/03/11 03:38:55;;;;;;;102.85;35.35;;;0.40;99.90;;;;;;5049380;28;20558;-48
2023/03/11 03:41:21;;;;;;;95.95;33.38;;;0.40;99.90;;;;;;5062108;28;20052;-46
2023/03/11 03:43:46;;;;;;;109.93;36.78;;;0.40;99.90;;;;;;5069166;28;20438;-47
2023/03/11 03:46:12;;;;;;;113.90;35.22;;;0.30;99.90;;;;;;5067559;28;20032;-46
2023/03/11 03:48:37;;;;;;;94.88;33.97;;;0.30;99.90;;;;;;5069157;28;20382;-46
2023/03/11 03:51:05;;;;;;;113.68;34.88;;;0.30;99.90;;;;;;5069135;28;20036;-46
2023/03/11 03:53:33;;;;;;;113.55;35.10;;;0.30;99.90;;;;;;5069460;28;20028;-46
2023/03/11 03:56:05;;;;;;;100.10;33.47;;;0.30;99.90;;;;;;5069050;28;20439;-46
2023/03/11 03:58:30;;;;;;;115.93;36.70;;;0.30;99.90;;;;;;5069456;28;20109;-46
2023/03/11 04:00:56;;;;;;;84.05;30.95;;;0.30;99.90;;;;;;5069107;28;20149;-47
2023/03/11 04:03:23;;;;;;;85.07;32.40;;;0.30;99.90;;;;;;5069403;28;20435;-47
2023/03/11 04:05:48;;;;;;;129.18;38.60;;;0.30;99.90;;;;;;5061331;28;20114;-46
2023/03/11 04:08:14;;;;;;;143.00;40.22;;;0.30;99.90;;;;;;5048719;28;20080;-47
2023/03/11 04:10:39;;;;;;;109.47;36.15;;;0.30;99.90;;;;;;5055879;28;20044;-47
2023/03/11 04:13:05;;;;;;;105.95;33.10;;;0.30;99.90;;;;;;5068980;28;20091;-46
2023/03/11 04:15:30;;;;;;;84.97;30.15;;;0.30;99.90;;;;;;5068548;28;20031;-46
2023/03/11 04:17:56;;;;;;;115.20;35.42;;;0.30;99.90;;;;;;5068783;28;20029;-46
2023/03/11 04:20:21;;;;;;;115.32;36.17;;;0.30;99.90;;;;;;5068783;28;20405;-49
2023/03/11 04:22:47;;;;;;;100.35;34.30;;;0.40;99.90;;;;;;5068256;28;20058;-46
2023/03/11 04:25:12;;;;;;;106.00;34.50;;;0.30;99.90;;;;;;5068423;28;20020;-46
2023/03/11 04:27:41;;;;;;;133.77;38.65;;;0.30;99.90;;;;;;5068988;28;20025;-47
2023/03/11 04:30:08;;;;;;;96.50;33.97;;;0.30;99.90;;;;;;5068801;28;20055;-46
2023/03/11 04:32:33;;;;;;;112.68;33.33;;;0.30;99.90;;;;;;5067418;28;20306;-46
2023/03/11 04:34:59;;;;;;;88.05;31.35;;;0.30;99.90;;;;;;5067687;28;20444;-46
2023/03/11 04:37:29;;;;;;;97.80;33.40;;;0.30;99.90;;;;;;5047437;28;20028;-47
2023/03/11 04:39:54;;;;;;;134.50;36.70;;;0.30;99.90;;;;;;5048746;28;20055;-46
2023/03/11 04:42:20;;;;;;;106.70;34.00;;;0.30;99.90;;;;;;5048661;28;20498;-46
2023/03/11 04:44:45;;;;;;;121.00;35.70;;;0.30;99.90;;;;;;5048292;28;20534;-48
2023/03/11 04:47:11;;;;;;;111.68;33.67;;;0.30;99.90;;;;;;5048811;28;20037;-47
2023/03/11 04:49:37;;;;;;;103.35;31.95;;;0.30;99.90;;;;;;5048600;28;20029;-47
2023/03/11 04:52:02;;;;;;;90.53;27.92;;;0.30;99.90;;;;;;5048478;28;20429;-48
2023/03/11 04:54:28;;;;;;;94.53;26.80;;;0.30;99.90;;;;;;5048562;28;20029;-47
2023/03/11 04:56:53;;;;;;;78.57;23.45;;;0.30;99.90;;;;;;5048219;28;20031;-49
2023/03/11 04:59:19;;;;;;;84.65;21.90;;;0.30;99.90;;;;;;5048381;28;20049;-46
2023/03/11 05:01:44;;;;;;;76.63;21.13;;;0.30;99.90;;;;;;5047037;28;20020;-47
2023/03/11 05:04:11;;;;;;;81.60;21.27;;;0.30;99.90;;;;;;5048265;28;20024;-47
2023/03/11 05:06:37;;;;;;;75.97;20.92;;;0.30;99.90;;;;;;5047919;28;20050;-46
2023/03/11 05:09:03;;;;;;;86.03;21.70;;;0.30;99.90;;;;;;5048382;28;20410;-46
2023/03/11 05:11:29;;;;;;;75.97;21.70;;;0.30;99.90;;;;;;5062072;28;20048;-47
2023/03/11 05:13:54;;;;;;;58.60;19.67;;;0.30;99.90;;;;;;5068473;28;20114;-46
2023/03/11 05:16:20;;;;;;;67.78;19.00;;;0.30;99.90;;;;;;5068441;28;20024;-46
2023/03/11 05:18:45;;;;;;;65.45;20.60;;;0.30;99.90;;;;;;5067063;28;20036;-46
2023/03/11 05:21:11;;;;;;;74.40;20.23;;;0.40;99.90;;;;;;5068068;28;20036;-45
2023/03/11 05:23:36;;;;;;;67.00;21.98;;;0.30;99.90;;;;;;5068081;28;20067;-46
2023/03/11 05:26:02;;;;;;;72.20;20.30;;;0.30;99.90;;;;;;5068143;28;20052;-46
2023/03/11 05:28:28;;;;;;;71.65;21.45;;;0.30;99.90;;;;;;5068146;28;20048;-46
2023/03/11 05:30:53;;;;;;;69.68;20.58;;;0.30;99.90;;;;;;5066599;28;20508;-47
2023/03/11 05:33:19;;;;;;;76.55;21.10;;;0.30;99.90;;;;;;5068039;28;20044;-46
2023/03/11 05:35:45;;;;;;;74.47;20.65;;;0.30;99.90;;;;;;5061552;28;20039;-45
2023/03/11 05:38:10;;;;;;;65.22;20.63;;;0.30;99.90;;;;;;5047722;28;20051;-47
2023/03/11 05:40:36;;;;;;;70.85;21.20;;;0.30;99.90;;;;;;5046595;28;20056;-47
2023/03/11 05:43:01;;;;;;;74.43;18.98;;;0.30;99.90;;;;;;5047854;28;20032;-46
2023/03/11 05:45:27;;;;;;;55.25;18.25;;;0.30;99.90;;;;;;5047616;28;20029;-47
2023/03/11 05:47:52;;;;;;;76.95;20.10;;;0.30;99.90;;;;;;5048942;28;20040;-47
2023/03/11 05:50:18;;;;;;;55.25;19.48;;;0.30;99.90;;;;;;5051679;28;20031;-46
2023/03/11 05:52:43;;;;;;;63.42;19.02;;;0.30;99.90;;;;;;5051415;28;20036;-49
2023/03/11 05:55:11;;;;;;;76.20;21.42;;;0.30;99.90;;;;;;5051484;28;20104;-46
2023/03/11 05:57:37;;;;;;;53.30;17.83;;;0.30;99.90;;;;;;5051751;28;20029;-46
2023/03/11 06:00:06;;;;;;;65.63;19.67;;;0.30;99.90;;;;;;5050437;28;20025;-46
2023/03/11 06:02:31;;;;;;;77.68;20.30;;;0.30;99.90;;;;;;5051604;28;20456;-47
2023/03/11 06:04:57;;;;;;;80.50;19.20;;;0.30;99.90;;;;;;5049836;28;20063;-46
2023/03/11 06:07:22;;;;;;;59.40;19.50;;;0.30;99.90;;;;;;5049524;28;20045;-46
2023/03/11 06:09:51;;;;;;;54.60;18.25;;;0.20;99.90;;;;;;5051251;28;20021;-46
2023/03/11 06:12:17;;;;;;;59.03;19.00;;;0.30;99.90;;;;;;5031640;28;20113;-46
2023/03/11 06:14:42;;;;;;;48.10;16.10;;;0.30;99.90;;;;;;5029922;28;20104;-47
2023/03/11 06:17:08;;;;;;;57.10;17.30;;;0.30;99.90;;;;;;5031959;28;20025;-47
2023/03/11 06:19:33;;;;;;;61.22;18.55;;;0.20;99.90;;;;;;5031546;28;20091;-46
2023/03/11 06:21:59;;;;;;;48.83;17.23;;;0.20;99.90;;;;;;5031068;28;20030;-46
2023/03/11 06:24:24;;;;;;;66.80;18.88;;;0.20;99.90;;;;;;5031379;28;20479;-46
2023/03/11 06:26:51;;;;;;;53.08;16.67;;;0.30;99.90;;;;;;5030965;28;20096;-46
2023/03/11 06:29:16;;;;;;;57.00;17.95;;;0.30;99.90;;;;;;5036365;28;20025;-47
2023/03/11 06:31:42;;;;;;;46.78;16.35;;;0.20;99.90;;;;;;5050761;28;20565;-46
2023/03/11 06:34:13;;;;;;;46.67;16.65;;;0.20;99.90;;;;;;5050636;28;20040;-46
2023/03/11 06:36:39;;;;;;;52.10;17.75;;;0.20;99.90;;;;;;5050222;28;20052;-46
2023/03/11 06:39:05;;;;;;;60.42;17.92;;;0.20;99.90;;;;;;5051058;28;20029;-46
2023/03/11 06:41:33;;;;;;;48.97;17.13;;;0.20;99.90;;;;;;5049277;28;20032;-46
2023/03/11 06:43:58;;;;;;;53.60;15.70;;;0.20;99.90;;;;;;5046589;28;20117;-46
2023/03/11 06:46:24;;;;;;;50.38;16.73;;;0.20;99.90;;;;;;5050002;28;20116;-46
2023/03/11 06:48:51;;;;;;;57.97;18.67;;;0.20;99.90;;;;;;5050291;28;20410;-48
2023/03/11 06:51:17;;;;;;;59.72;17.08;;;0.30;99.90;;;;;;5049589;28;20020;-46
2023/03/11 06:53:42;;;;;;;52.72;15.57;;;0.20;99.90;;;;;;5049172;28;20233;-46
2023/03/11 06:56:13;;;;;;;43.85;15.55;;;0.30;99.90;;;;;;5048828;28;20108;-46
2023/03/11 06:58:40;;;;;;;55.40;16.70;;;0.30;99.90;;;;;;5047783;28;20104;-46
2023/03/11 07:01:26;;;;;;;49.80;16.80;;;0.40;99.90;;;;;;5049506;28;20025;-47
2023/03/11 07:03:51;;;;;;;49.70;17.33;;;0.40;99.90;;;;;;5048764;28;20025;-47
2023/03/11 07:06:20;;;;;;;54.47;16.52;;;0.40;99.90;;;;;;5047049;28;20056;-48
2023/03/11 07:08:47;;;;;;;51.70;17.98;;;0.40;99.90;;;;;;5048761;28;20017;-49
2023/03/11 07:11:16;;;;;;;57.10;17.80;;;0.50;99.90;;;;;;5049004;28;20024;-46
2023/03/11 07:13:42;;;;;;;48.00;17.10;;;0.50;99.90;;;;;;5049063;28;20100;-46
2023/03/11 07:16:11;;;;;;;47.60;18.42;;;0.50;99.90;;;;;;5048771;28;20452;-46
2023/03/11 07:18:37;;;;;;;33.60;12.93;;;0.50;99.90;;;;;;5048790;28;20040;-46
2023/03/11 07:21:05;;;;;;;51.35;18.17;;;0.60;99.90;;;;;;5048581;28;20360;-46
2023/03/11 07:23:31;;;;;;;40.20;15.77;;;0.60;99.90;;;;;;5048628;28;20386;-46
2023/03/11 07:25:56;;;;;;;44.35;17.02;;;0.60;99.90;;;;;;5055013;28;20117;-46
2023/03/11 07:28:23;;;;;;;43.63;17.40;;;0.70;99.90;;;;;;5048497;28;20433;-46
2023/03/11 07:30:49;;;;;;;51.00;17.60;;;0.70;99.90;;;;;;5047167;28;20112;-46
2023/03/11 07:33:15;;;;;;;51.45;17.25;;;0.70;99.90;;;;;;5048277;28;20657;-46
2023/03/11 07:35:40;;;;;;;40.13;16.15;;;0.80;99.90;;;;;;5048311;28;20028;-46
2023/03/11 07:38:07;;;;;;;42.63;17.60;;;0.70;99.90;;;;;;5048641;28;20033;-46
2023/03/11 07:40:32;;;;;;;46.25;17.00;;;0.70;99.90;;;;;;5048356;28;20666;-46
2023/03/11 07:42:58;;;;;;;37.22;15.60;;;0.70;99.90;;;;;;5047893;28;20029;-45
2023/03/11 07:45:23;;;;;;;43.08;15.73;;;0.60;99.90;;;;;;5048495;28;20225;-46
2023/03/11 07:47:49;;;;;;;38.33;16.20;;;0.60;99.90;;;;;;5048550;28;20087;-48
2023/03/11 07:50:16;;;;;;;38.67;16.23;;;0.70;99.90;;;;;;5048376;28;20017;-48
2023/03/11 07:52:41;;;;;;;47.58;16.92;;;0.80;99.90;;;;;;5047719;28;20356;-47
2023/03/11 07:55:07;;;;;;;37.33;14.85;;;0.80;99.90;;;;;;5047886;28;20097;-46
2023/03/11 07:57:33;;;;;;;40.85;18.08;;;0.80;99.90;;;;;;5048455;28;20028;-46
2023/03/11 07:59:59;;;;;;;34.25;15.00;;;0.90;99.90;;;;;;5046914;28;20017;-46
2023/03/11 08:02:24;;;;;;;40.85;16.25;;;0.90;99.90;;;;;;5047537;28;20033;-46
2023/03/11 08:04:50;;;;;;;40.97;15.43;;;0.90;99.90;;;;;;5047694;28;20017;-49
2023/03/11 08:07:15;;;;;;;41.92;16.10;;;1.00;99.90;;;;;;5047711;28;20419;-49
2023/03/11 08:09:41;;;;;;;34.70;15.73;;;1.00;99.90;;;;;;5047640;28;20021;-46
2023/03/11 08:12:07;;;;;;;34.97;14.90;;;1.00;99.90;;;;;;5045897;28;20095;-46
2023/03/11 08:14:32;;;;;;;36.30;14.48;;;1.00;99.90;;;;;;5047972;28;20065;-46
2023/03/11 08:16:58;;;;;;;31.27;14.65;;;1.10;99.90;;;;;;5047415;28;20028;-46
2023/03/11 08:19:23;;;;;;;33.45;14.98;;;1.20;99.90;;;;;;5048348;28;20017;-46
2023/03/11 08:21:49;;;;;;;32.28;14.98;;;1.30;99.90;;;;;;5048131;28;20232;-49
2023/03/11 08:24:15;;;;;;;33.50;15.55;;;1.30;99.90;;;;;;5047624;28;20127;-46
2023/03/11 08:26:40;;;;;;;40.40;15.05;;;1.30;99.90;;;;;;5048814;28;20383;-46
2023/03/11 08:29:06;;;;;;;34.83;15.55;;;1.40;99.90;;;;;;5048777;28;20025;-46
2023/03/11 08:31:33;;;;;;;27.33;15.60;;;1.50;99.90;;;;;;5048805;28;20033;-48
2023/03/11 08:34:05;;;;;;;27.00;13.93;;;1.60;99.90;;;;;;5047347;28;20075;-46
2023/03/11 08:36:31;;;;;;;30.58;14.43;;;1.70;99.90;;;;;;5046904;28;20029;-46
2023/03/11 08:38:57;;;;;;;30.10;14.55;;;1.70;99.90;;;;;;5048335;28;20029;-48
2023/03/11 08:41:23;;;;;;;32.10;13.48;;;1.80;99.90;;;;;;5048669;28;20025;-46
2023/03/11 08:43:51;;;;;;;24.73;13.80;;;1.80;99.90;;;;;;5048362;28;20059;-46
2023/03/11 08:46:31;;;;;;;26.88;12.73;;;2.00;99.90;;;;;;5048176;28;20021;-48
2023/03/11 08:48:57;;;;;;;29.77;13.77;;;2.10;99.90;;;;;;5046608;28;20031;-46
2023/03/11 08:51:24;;;;;;;27.35;15.60;;;2.20;99.90;;;;;;5048146;28;20490;-46
2023/03/11 08:53:50;;;;;;;24.92;13.70;;;2.40;99.90;;;;;;5046442;28;20037;-47
2023/03/11 08:56:17;;;;;;;24.13;13.77;;;2.60;99.90;;;;;;5048035;28;20017;-47
2023/03/11 08:58:43;;;;;;;27.67;14.38;;;3.40;99.90;;;;;;5048565;28;20028;-44
2023/03/11 09:01:09;;;;;;;18.85;12.13;;;4.40;99.90;;;;;;5048399;28;20029;-44
2023/03/11 09:03:35;;;;;;;12.32;9.95;;;6.00;99.90;;;;;;5046815;28;20032;-44
2023/03/11 09:06:03;;;;;;;12.63;7.88;;;7.30;99.90;;;;;;5048004;28;20017;-44
2023/03/11 09:08:29;;;;;;;12.63;6.93;;;8.40;99.90;;;;;;5053468;28;20053;-44
2023/03/11 09:10:55;;;;;;;8.15;6.15;;;9.30;99.90;;;;;;5046906;28;20564;-45
2023/03/11 09:13:21;;;;;;;6.15;5.32;;;9.70;99.90;;;;;;5048395;28;20036;-44
2023/03/11 09:15:48;;;;;;;6.88;5.10;;;10.10;99.90;;;;;;5047848;28;20403;-45
2023/03/11 09:18:14;;;;;;;8.02;5.60;;;10.30;99.90;;;;;;5048168;28;20024;-47
2023/03/11 09:20:40;;;;;;;6.95;5.60;;;10.70;99.90;;;;;;5046958;28;20037;-44
2023/03/11 09:23:08;;;;;;;5.20;4.63;;;11.10;99.90;;;;;;5048803;28;20383;-45
2023/03/11 09:25:33;;;;;;;6.15;5.10;;;11.00;99.90;;;;;;5051688;28;20337;-46
2023/03/11 09:27:59;;;;;;;6.30;5.13;;;11.40;99.90;;;;;;5051969;28;20025;-46
2023/03/11 09:30:24;;;;;;;6.63;6.00;;;11.40;99.90;;;;;;5052169;28;20048;-45
2023/03/11 09:32:50;;;;;;;5.68;5.13;;;10.40;99.90;;;;;;5052822;28;20025;-44
2023/03/11 09:35:15;;;;;;;6.88;5.47;;;10.10;99.90;;;;;;5048434;28;20029;-44
2023/03/11 09:37:41;;;;;;;6.65;6.00;;;10.00;99.90;;;;;;5051494;28;20033;-46
2023/03/11 09:40:07;;;;;;;6.15;5.55;;;9.80;99.90;;;;;;5051735;28;20059;-44
2023/03/11 09:42:42;;;;;;;8.35;6.38;;;9.20;99.90;;;;;;5051961;28;20029;-44
2023/03/11 09:45:23;;;;;;;10.00;6.57;;;8.50;99.90;;;;;;5049612;28;20018;-44
2023/03/11 09:48:18;;;;;;;9.73;6.60;;;8.80;99.90;;;;;;5058886;28;20102;-44
2023/03/11 09:50:52;;;;;;;8.82;6.95;;;9.00;99.90;;;;;;5072191;28;20529;-44
2023/03/11 09:53:36;;;;;;;10.98;7.13;;;8.70;99.90;;;;;;5071403;28;20074;-44
2023/03/11 09:56:05;;;;;;;9.02;8.13;;;7.30;99.90;;;;;;5071049;28;20024;-43
2023/03/11 09:58:41;;;;;;;10.35;8.57;;;6.10;99.90;;;;;;5069414;28;20035;-43
2023/03/11 10:01:29;;;;;;;10.45;8.38;;;5.10;99.90;;;;;;5071773;28;20103;-44
2023/03/11 10:04:00;;;;;;;11.38;8.65;;;4.60;99.90;;;;;;5071593;28;20102;-44
2023/03/11 10:06:30;;;;;;;14.70;9.02;;;4.40;99.90;;;;;;5059439;28;20028;-44
2023/03/11 10:09:29;;;;;;;14.45;8.65;;;4.10;99.90;;;;;;5056962;28;20029;-44
2023/03/11 10:12:23;;;;;;;18.15;9.50;;;4.00;99.90;;;;;;5051480;28;20108;-45
2023/03/11 10:15:14;;;;;;;12.02;8.77;;;3.90;99.90;;;;;;5049671;28;20017;-45
2023/03/11 10:17:57;;;;;;;15.10;8.40;;;3.90;99.90;;;;;;5051501;28;20052;-46
2023/03/11 10:20:41;;;;;;;12.15;8.70;;;4.00;99.90;;;;;;5050279;28;20691;-46
2023/03/11 10:23:15;;;;;;;13.07;9.13;;;3.50;99.90;;;;;;5049377;28;20037;-44
2023/03/11 10:25:59;;;;;;;11.77;8.45;;;4.10;99.90;;;;;;5051153;28;20025;-44
2023/03/11 10:28:50;;;;;;;9.93;6.88;;;4.50;99.90;;;;;;5050076;28;20052;-44
2023/03/11 10:31:26;;;;;;;10.40;7.10;;;4.60;99.90;;;;;;5051404;28;20096;-44
2023/03/11 10:34:09;;;;;;;9.45;6.32;;;4.50;99.90;;;;;;5049209;28;20029;-44
2023/03/11 10:36:41;;;;;;;11.65;7.20;;;5.80;99.90;;;;;;5049266;28;20498;-45
2023/03/11 10:39:10;;;;;;;10.90;6.30;;;6.20;99.90;;;;;;5064003;28;20029;-44
2023/03/11 10:41:48;;;;;;;7.90;5.82;;;6.60;99.90;;;;;;5071079;28;20044;-45
2023/03/11 10:44:33;;;;;;;7.18;5.30;;;8.40;99.90;;;;;;5071246;28;20064;-45
2023/03/11 10:47:00;;;;;;;9.07;4.93;;;10.20;99.90;;;;;;5069443;28;20375;-45
2023/03/11 10:49:26;;;;;;;5.95;4.60;;;11.10;99.10;;;;;;5051075;28;20017;-44
2023/03/11 10:51:53;;;;;;;6.28;4.30;;;12.00;97.50;;;;;;5050671;28;20095;-46
2023/03/11 10:54:29;;;;;;;6.38;4.60;;;12.70;91.80;;;;;;5050942;28;20036;-45
2023/03/11 10:57:19;;;;;;;5.68;4.40;;;13.60;87.60;;;;;;5051120;28;20103;-45
2023/03/11 10:59:53;;;;;;;7.00;4.53;;;14.70;83.80;;;;;;5050938;28;20029;-45
2023/03/11 11:02:49;;;;;;;7.00;3.72;;;13.70;79.50;;;;;;5050153;28;20534;-45
2023/03/11 11:05:19;;;;;;;4.97;4.25;;;13.30;80.70;;;;;;5048771;28;20478;-46
2023/03/11 11:07:48;;;;;;;4.55;3.65;;;12.70;87.20;;;;;;5049839;28;20009;-46
2023/03/11 11:10:21;;;;;;;6.15;4.22;;;12.70;82.60;;;;;;5050388;28;20024;-47
2023/03/11 11:13:12;;;;;;;10.52;4.63;;;11.70;82.80;;;;;;5050278;28;20533;-44
2023/03/11 11:15:56;;;;;;;5.30;3.90;;;10.30;88.30;;;;;;5049883;28;20035;-45
2023/03/11 11:18:32;;;;;;;5.53;4.53;;;8.50;92.10;;;;;;5050353;28;20025;-44
2023/03/11 11:21:05;;;;;;;8.73;4.35;;;8.80;96.00;;;;;;5049979;28;20025;-47
2023/03/11 11:23:35;;;;;;;6.78;3.90;;;8.20;93.10;;;;;;5049706;28;20558;-44
2023/03/11 11:26:04;;;;;;;5.68;4.35;;;8.50;95.70;;;;;;5050085;28;20021;-44
2023/03/11 11:28:32;;;;;;;4.78;3.60;;;9.10;95.20;;;;;;5050293;28;20394;-44
2023/03/11 11:31:00;;;;;;;4.95;3.42;;;9.80;93.40;;;;;;5049740;28;20032;-44
2023/03/11 11:33:30;;;;;;;6.18;4.10;;;9.40;93.90;;;;;;5048254;28;20115;-45
2023/03/11 11:36:00;;;;;;;5.65;3.88;;;10.60;92.70;;;;;;5049578;28;20029;-44
2023/03/11 11:38:27;;;;;;;4.70;3.22;;;11.60;90.20;;;;;;5064604;28;20032;-39
2023/03/11 11:40:55;;;;;;;5.88;3.45;;;12.10;90.00;;;;;;5069520;28;20028;-44
2023/03/11 11:43:35;;;;;;;4.85;3.25;;;11.70;86.20;;;;;;5069280;28;20020;-39
2023/03/11 11:46:08;;;;;;;7.38;3.38;;;10.60;90.30;;;;;;5068528;28;20028;-39
2023/03/11 11:49:06;;;;;;;6.20;3.15;;;9.50;91.20;;;;;;5069450;28;20024;-44
2023/03/11 11:51:44;;;;;;;5.50;3.22;;;8.80;91.10;;;;;;5069484;28;20421;-38
2023/03/11 11:54:19;;;;;;;9.32;4.18;;;8.40;95.00;;;;;;5069771;28;20016;-39
2023/03/11 11:56:45;;;;;;;4.95;2.60;;;9.10;93.20;;;;;;5069287;28;20108;-44
2023/03/11 11:59:20;;;;;;;5.22;3.15;;;10.50;91.30;;;;;;5069876;28;20516;-44
2023/03/11 12:02:17;;;;;;;6.10;3.25;;;11.30;89.80;;;;;;5069485;28;20394;-39
2023/03/11 12:05:15;;;;;;;2.90;2.33;;;10.70;90.20;;;;;;5068395;28;20047;-39
2023/03/11 12:07:54;;;;;;;5.95;2.25;;;10.20;86.90;;;;;;5037435;28;20496;-39
2023/03/11 12:10:46;;;;;;;4.70;2.40;;;10.20;88.30;;;;;;5069684;28;20027;-44
2023/03/11 12:13:44;;;;;;;5.63;2.97;;;11.10;89.40;;;;;;5069319;28;20402;-39
2023/03/11 12:16:18;;;;;;;3.70;2.60;;;11.00;87.40;;;;;;5068877;28;20082;-39
2023/03/11 12:18:55;;;;;;;6.78;2.80;;;10.10;85.30;;;;;;5069351;28;20375;-39
2023/03/11 12:21:35;;;;;;;9.45;2.88;;;10.20;88.90;;;;;;5069179;28;20622;-39
2023/03/11 12:24:14;;;;;;;4.65;2.15;;;10.90;90.00;;;;;;5068341;28;20029;-39
2023/03/11 12:26:44;;;;;;;7.05;2.60;;;11.50;86.20;;;;;;5068737;28;20202;-39
2023/03/11 12:29:34;;;;;;;3.00;2.10;;;12.50;82.20;;;;;;5068832;28;20074;-39
2023/03/11 12:32:01;;;;;;;7.07;2.33;;;12.50;81.10;;;;;;5069264;28;20437;-39
2023/03/11 12:34:28;;;;;;;6.28;2.45;;;12.00;82.80;;;;;;5068777;28;20028;-39
2023/03/11 12:36:56;;;;;;;6.22;2.55;;;11.30;84.10;;;;;;5052785;28;20333;-39
2023/03/11 12:39:23;;;;;;;9.02;2.60;;;9.90;86.50;;;;;;5048535;28;20037;-39
2023/03/11 12:42:09;;;;;;;6.72;2.92;;;8.90;91.10;;;;;;5048738;28;20025;-39
2023/03/11 12:44:35;;;;;;;7.45;2.97;;;8.70;93.70;;;;;;5048347;28;20102;-39
2023/03/11 12:47:26;;;;;;;8.32;3.05;;;8.30;92.30;;;;;;5048004;28;20037;-39
2023/03/11 12:49:53;;;;;;;;;;;7.70;95.60;;;;;;5049422;28;20021;-39